White Hall, Illinois
Current Conditions -  °F | °C
As of 7:15 AM on Sunday 21 Dec 2014 (Local Time) from KIJX Reporting Station
Overcast Overcast  
Wind Chill: 34°   Ceiling: 2200
Heat Index: 39°   Visibility: 10mi
Dew Point: 34°   Wind: 7mph
Humidity: 82%   Direction: 150°SSE
Pressure: 30.19"   Gusts: NA
Location:  39.44°N, 90.4°W
Report Text: KIJX 211315Z AUTO 15006KT 10SM OVC022 04/01 A3019 RMK AO2 T00410012
Loading
Personal Weather Stations






























Interactive Weather Map New forecast layout! Learn more

10-Day Weather Forecast

Advertisements
Track Severe Weather on mobile